sensor_id;sensor_type;location;lat;lon;timestamp;temperature;humidity
3492;DHT22;1760;52.480;13.422;2022-12-17T00:01:30;0.10;99.90
3492;DHT22;1760;52.480;13.422;2022-12-17T00:04:15;0.10;99.90
3492;DHT22;1760;52.480;13.422;2022-12-17T00:06:59;0.10;99.90
3492;DHT22;1760;52.480;13.422;2022-12-17T00:09:44;0.10;99.90
3492;DHT22;1760;52.480;13.422;2022-12-17T00:12:30;0.20;99.90
3492;DHT22;1760;52.480;13.422;2022-12-17T00:15:23;0.10;99.90
3492;DHT22;1760;52.480;13.422;2022-12-17T00:18:07;0.20;99.90
3492;DHT22;1760;52.480;13.422;2022-12-17T00:20:53;0.10;99.90
3492;DHT22;1760;52.480;13.422;2022-12-17T00:23:40;0.10;99.90
3492;DHT22;1760;52.480;13.422;2022-12-17T00:26:25;0.20;99.90
3492;DHT22;1760;52.480;13.422;2022-12-17T00:29:10;0.20;99.90
3492;DHT22;1760;52.480;13.422;2022-12-17T00:31:55;0.20;99.90
3492;DHT22;1760;52.480;13.422;2022-12-17T00:34:39;0.20;99.90
3492;DHT22;1760;52.480;13.422;2022-12-17T00:37:24;0.20;99.90
3492;DHT22;1760;52.480;13.422;2022-12-17T00:40:05;0.30;99.90
3492;DHT22;1760;52.480;13.422;2022-12-17T00:42:58;0.30;99.90
3492;DHT22;1760;52.480;13.422;2022-12-17T00:45:47;0.30;99.90
3492;DHT22;1760;52.480;13.422;2022-12-17T00:48:32;0.20;99.90
3492;DHT22;1760;52.480;13.422;2022-12-17T00:51:17;0.30;99.90
3492;DHT22;1760;52.480;13.422;2022-12-17T00:54:02;0.30;99.90
3492;DHT22;1760;52.480;13.422;2022-12-17T00:56:50;0.30;99.90
3492;DHT22;1760;52.480;13.422;2022-12-17T00:59:36;0.30;99.90
3492;DHT22;1760;52.480;13.422;2022-12-17T01:02:25;0.30;99.90
3492;DHT22;1760;52.480;13.422;2022-12-17T01:05:10;0.30;99.90
3492;DHT22;1760;52.480;13.422;2022-12-17T01:08:06;0.30;99.90
3492;DHT22;1760;52.480;13.422;2022-12-17T01:10:50;0.40;99.90
3492;DHT22;1760;52.480;13.422;2022-12-17T01:13:34;0.40;99.90
3492;DHT22;1760;52.480;13.422;2022-12-17T01:16:37;0.40;99.90
3492;DHT22;1760;52.480;13.422;2022-12-17T01:19:23;0.30;99.90
3492;DHT22;1760;52.480;13.422;2022-12-17T01:22:08;0.40;99.90
3492;DHT22;1760;52.480;13.422;2022-12-17T01:24:52;0.30;99.90
3492;DHT22;1760;52.480;13.422;2022-12-17T01:27:36;0.30;99.90
3492;DHT22;1760;52.480;13.422;2022-12-17T01:30:21;0.30;99.90
3492;DHT22;1760;52.480;13.422;2022-12-17T01:33:07;0.30;99.90
3492;DHT22;1760;52.480;13.422;2022-12-17T01:35:55;0.30;99.90
3492;DHT22;1760;52.480;13.422;2022-12-17T01:38:40;0.30;99.90
3492;DHT22;1760;52.480;13.422;2022-12-17T01:41:24;0.30;99.90
3492;DHT22;1760;52.480;13.422;2022-12-17T01:44:43;0.30;99.90
3492;DHT22;1760;52.480;13.422;2022-12-17T01:47:30;0.30;99.90
3492;DHT22;1760;52.480;13.422;2022-12-17T01:50:16;0.30;99.90
3492;DHT22;1760;52.480;13.422;2022-12-17T01:53:04;0.30;99.90
3492;DHT22;1760;52.480;13.422;2022-12-17T01:55:52;0.30;99.90
3492;DHT22;1760;52.480;13.422;2022-12-17T01:58:37;0.60;99.90
3492;DHT22;1760;52.480;13.422;2022-12-17T02:01:22;0.30;99.90
3492;DHT22;1760;52.480;13.422;2022-12-17T02:04:10;0.20;99.90
3492;DHT22;1760;52.480;13.422;2022-12-17T02:07:08;0.20;99.90
3492;DHT22;1760;52.480;13.422;2022-12-17T02:10:05;0.20;99.90
3492;DHT22;1760;52.480;13.422;2022-12-17T02:12:53;0.20;99.90
3492;DHT22;1760;52.480;13.422;2022-12-17T02:15:42;0.20;99.90
3492;DHT22;1760;52.480;13.422;2022-12-17T02:18:35;0.20;99.90
3492;DHT22;1760;52.480;13.422;2022-12-17T02:21:20;0.20;99.90
3492;DHT22;1760;52.480;13.422;2022-12-17T02:24:11;0.20;99.90
3492;DHT22;1760;52.480;13.422;2022-12-17T02:27:04;0.10;99.90
3492;DHT22;1760;52.480;13.422;2022-12-17T02:29:53;0.10;99.90
3492;DHT22;1760;52.480;13.422;2022-12-17T02:32:40;0.00;99.90
3492;DHT22;1760;52.480;13.422;2022-12-17T02:35:30;-0.10;99.90
3492;DHT22;1760;52.480;13.422;2022-12-17T02:38:20;-0.10;99.90
3492;DHT22;1760;52.480;13.422;2022-12-17T02:41:05;-0.20;99.90
3492;DHT22;1760;52.480;13.422;2022-12-17T02:43:53;-0.10;99.90
3492;DHT22;1760;52.480;13.422;2022-12-17T02:46:42;-0.10;99.90
3492;DHT22;1760;52.480;13.422;2022-12-17T02:49:27;-0.30;99.90
3492;DHT22;1760;52.480;13.422;2022-12-17T02:52:12;-0.30;99.90
3492;DHT22;1760;52.480;13.422;2022-12-17T02:54:58;-0.40;99.90
3492;DHT22;1760;52.480;13.422;2022-12-17T02:57:43;-0.40;99.90
3492;DHT22;1760;52.480;13.422;2022-12-17T03:00:28;-0.40;99.90
3492;DHT22;1760;52.480;13.422;2022-12-17T03:03:13;-0.40;99.90
3492;DHT22;1760;52.480;13.422;2022-12-17T03:05:57;-0.50;99.90
3492;DHT22;1760;52.480;13.422;2022-12-17T03:08:42;-0.50;99.90
3492;DHT22;1760;52.480;13.422;2022-12-17T03:11:27;-0.50;99.90
3492;DHT22;1760;52.480;13.422;2022-12-17T03:14:15;-0.50;99.90
3492;DHT22;1760;52.480;13.422;2022-12-17T03:17:01;-0.50;99.90
3492;DHT22;1760;52.480;13.422;2022-12-17T03:19:47;-0.50;99.90
3492;DHT22;1760;52.480;13.422;2022-12-17T03:22:37;-0.50;99.90
3492;DHT22;1760;52.480;13.422;2022-12-17T03:25:38;-0.50;99.90
3492;DHT22;1760;52.480;13.422;2022-12-17T03:28:25;-0.50;99.90
3492;DHT22;1760;52.480;13.422;2022-12-17T03:31:10;-0.50;99.90
3492;DHT22;1760;52.480;13.422;2022-12-17T03:33:58;-0.50;99.90
3492;DHT22;1760;52.480;13.422;2022-12-17T03:36:43;-0.50;99.90
3492;DHT22;1760;52.480;13.422;2022-12-17T03:39:27;-0.40;99.90
3492;DHT22;1760;52.480;13.422;2022-12-17T03:42:12;-0.40;99.90
3492;DHT22;1760;52.480;13.422;2022-12-17T03:44:56;-0.30;99.90
3492;DHT22;1760;52.480;13.422;2022-12-17T03:47:40;-0.40;99.90
3492;DHT22;1760;52.480;13.422;2022-12-17T03:50:27;-0.40;99.90
3492;DHT22;1760;52.480;13.422;2022-12-17T03:53:11;-0.40;99.90
3492;DHT22;1760;52.480;13.422;2022-12-17T03:55:55;-0.40;99.90
3492;DHT22;1760;52.480;13.422;2022-12-17T03:58:42;-0.40;99.90
3492;DHT22;1760;52.480;13.422;2022-12-17T04:01:27;-0.30;99.90
3492;DHT22;1760;52.480;13.422;2022-12-17T04:04:11;-0.30;99.90
3492;DHT22;1760;52.480;13.422;2022-12-17T04:06:57;-0.30;99.90
3492;DHT22;1760;52.480;13.422;2022-12-17T04:09:41;-0.30;99.90
3492;DHT22;1760;52.480;13.422;2022-12-17T04:12:26;-0.40;99.90
3492;DHT22;1760;52.480;13.422;2022-12-17T04:15:10;-0.40;99.90
3492;DHT22;1760;52.480;13.422;2022-12-17T04:17:54;-0.40;99.90
3492;DHT22;1760;52.480;13.422;2022-12-17T04:20:42;-0.40;99.90
3492;DHT22;1760;52.480;13.422;2022-12-17T04:23:28;-0.50;99.90
3492;DHT22;1760;52.480;13.422;2022-12-17T04:26:12;-0.30;99.90
3492;DHT22;1760;52.480;13.422;2022-12-17T04:28:59;-0.30;99.90
3492;DHT22;1760;52.480;13.422;2022-12-17T04:31:44;-0.30;99.90
3492;DHT22;1760;52.480;13.422;2022-12-17T04:34:28;-0.40;99.90
3492;DHT22;1760;52.480;13.422;2022-12-17T04:37:12;-0.30;99.90
3492;DHT22;1760;52.480;13.422;2022-12-17T04:39:58;-0.30;99.90
3492;DHT22;1760;52.480;13.422;2022-12-17T04:42:45;-0.40;99.90
3492;DHT22;1760;52.480;13.422;2022-12-17T04:45:31;-0.40;99.90
3492;DHT22;1760;52.480;13.422;2022-12-17T04:48:24;-0.40;99.90
3492;DHT22;1760;52.480;13.422;2022-12-17T04:51:09;-0.40;99.90
3492;DHT22;1760;52.480;13.422;2022-12-17T04:53:53;-0.40;99.90
3492;DHT22;1760;52.480;13.422;2022-12-17T04:56:38;-0.40;99.90
3492;DHT22;1760;52.480;13.422;2022-12-17T04:59:34;-0.40;99.90
3492;DHT22;1760;52.480;13.422;2022-12-17T05:02:19;-0.40;99.90
3492;DHT22;1760;52.480;13.422;2022-12-17T05:05:04;-0.40;99.90
3492;DHT22;1760;52.480;13.422;2022-12-17T05:07:51;-0.40;99.90
3492;DHT22;1760;52.480;13.422;2022-12-17T05:10:36;-0.50;99.90
3492;DHT22;1760;52.480;13.422;2022-12-17T05:13:22;-0.50;99.90
3492;DHT22;1760;52.480;13.422;2022-12-17T05:16:05;-0.50;99.90
3492;DHT22;1760;52.480;13.422;2022-12-17T05:18:50;-0.50;99.90
3492;DHT22;1760;52.480;13.422;2022-12-17T05:21:35;-0.50;99.90
3492;DHT22;1760;52.480;13.422;2022-12-17T05:24:19;-0.50;99.90
3492;DHT22;1760;52.480;13.422;2022-12-17T05:27:03;-0.50;99.90
3492;DHT22;1760;52.480;13.422;2022-12-17T05:29:53;-0.50;99.90
3492;DHT22;1760;52.480;13.422;2022-12-17T05:32:37;-0.50;99.90
3492;DHT22;1760;52.480;13.422;2022-12-17T05:35:21;-0.40;99.90
3492;DHT22;1760;52.480;13.422;2022-12-17T05:38:07;-0.50;99.90
3492;DHT22;1760;52.480;13.422;2022-12-17T05:40:55;-0.50;99.90
3492;DHT22;1760;52.480;13.422;2022-12-17T05:43:40;-0.50;99.90
3492;DHT22;1760;52.480;13.422;2022-12-17T05:46:29;-0.50;99.90
3492;DHT22;1760;52.480;13.422;2022-12-17T05:49:13;-0.50;99.90
3492;DHT22;1760;52.480;13.422;2022-12-17T05:51:58;-0.50;99.90
3492;DHT22;1760;52.480;13.422;2022-12-17T05:54:44;-0.50;99.90
3492;DHT22;1760;52.480;13.422;2022-12-17T05:57:28;-0.50;99.90
3492;DHT22;1760;52.480;13.422;2022-12-17T06:00:13;-0.50;99.90
3492;DHT22;1760;52.480;13.422;2022-12-17T06:03:00;-0.50;99.90
3492;DHT22;1760;52.480;13.422;2022-12-17T06:05:46;-0.50;99.90
3492;DHT22;1760;52.480;13.422;2022-12-17T06:08:27;-0.60;99.90
3492;DHT22;1760;52.480;13.422;2022-12-17T06:11:11;-0.50;99.90
3492;DHT22;1760;52.480;13.422;2022-12-17T06:13:56;-0.50;99.90
3492;DHT22;1760;52.480;13.422;2022-12-17T06:27:35;-0.60;99.90
3492;DHT22;1760;52.480;13.422;2022-12-17T06:30:20;-0.50;99.90
3492;DHT22;1760;52.480;13.422;2022-12-17T06:33:04;-0.60;99.90
3492;DHT22;1760;52.480;13.422;2022-12-17T06:35:51;-0.60;99.90
3492;DHT22;1760;52.480;13.422;2022-12-17T06:38:47;-0.60;99.90
3492;DHT22;1760;52.480;13.422;2022-12-17T06:41:32;-0.50;99.90
3492;DHT22;1760;52.480;13.422;2022-12-17T06:44:17;-0.60;99.90
3492;DHT22;1760;52.480;13.422;2022-12-17T06:47:02;-0.60;99.90
3492;DHT22;1760;52.480;13.422;2022-12-17T06:49:46;-0.60;99.90
3492;DHT22;1760;52.480;13.422;2022-12-17T06:52:31;-0.70;99.90
3492;DHT22;1760;52.480;13.422;2022-12-17T06:55:15;-0.80;99.90
3492;DHT22;1760;52.480;13.422;2022-12-17T06:58:00;-0.80;99.90
3492;DHT22;1760;52.480;13.422;2022-12-17T07:00:46;-0.80;99.90
3492;DHT22;1760;52.480;13.422;2022-12-17T07:03:31;-0.80;99.90
3492;DHT22;1760;52.480;13.422;2022-12-17T07:06:15;-0.80;99.90
3492;DHT22;1760;52.480;13.422;2022-12-17T07:08:59;-0.80;99.90
3492;DHT22;1760;52.480;13.422;2022-12-17T07:11:44;-0.80;99.90
3492;DHT22;1760;52.480;13.422;2022-12-17T07:14:30;-0.80;99.90
3492;DHT22;1760;52.480;13.422;2022-12-17T07:17:16;-0.90;99.90
3492;DHT22;1760;52.480;13.422;2022-12-17T07:20:02;-0.80;99.90
3492;DHT22;1760;52.480;13.422;2022-12-17T07:22:47;-0.80;99.90
3492;DHT22;1760;52.480;13.422;2022-12-17T07:25:31;-0.80;99.90
3492;DHT22;1760;52.480;13.422;2022-12-17T07:28:15;-0.80;99.90
3492;DHT22;1760;52.480;13.422;2022-12-17T07:31:00;-0.70;99.90
3492;DHT22;1760;52.480;13.422;2022-12-17T07:33:48;-0.70;99.90
3492;DHT22;1760;52.480;13.422;2022-12-17T07:36:33;-0.70;99.90
3492;DHT22;1760;52.480;13.422;2022-12-17T07:39:17;-0.70;99.90
3492;DHT22;1760;52.480;13.422;2022-12-17T07:42:02;-0.70;99.90
3492;DHT22;1760;52.480;13.422;2022-12-17T07:44:46;-0.60;99.90
3492;DHT22;1760;52.480;13.422;2022-12-17T07:47:30;-0.70;99.90
3492;DHT22;1760;52.480;13.422;2022-12-17T07:50:16;-0.70;99.90
3492;DHT22;1760;52.480;13.422;2022-12-17T07:53:01;-0.60;99.90
3492;DHT22;1760;52.480;13.422;2022-12-17T07:55:50;-0.60;99.90
3492;DHT22;1760;52.480;13.422;2022-12-17T07:58:34;-0.70;99.90
3492;DHT22;1760;52.480;13.422;2022-12-17T08:01:18;-0.60;99.90
3492;DHT22;1760;52.480;13.422;2022-12-17T08:04:03;-0.60;99.90
3492;DHT22;1760;52.480;13.422;2022-12-17T08:06:49;-0.60;99.90
3492;DHT22;1760;52.480;13.422;2022-12-17T08:09:33;-0.70;99.90
3492;DHT22;1760;52.480;13.422;2022-12-17T08:12:20;-0.70;99.90
3492;DHT22;1760;52.480;13.422;2022-12-17T08:15:05;-0.80;99.90
3492;DHT22;1760;52.480;13.422;2022-12-17T08:17:49;-0.70;99.90
3492;DHT22;1760;52.480;13.422;2022-12-17T08:20:36;-0.70;99.90
3492;DHT22;1760;52.480;13.422;2022-12-17T08:23:22;-0.60;99.90
3492;DHT22;1760;52.480;13.422;2022-12-17T08:26:03;-0.60;99.90
3492;DHT22;1760;52.480;13.422;2022-12-17T08:28:49;-0.60;99.90
3492;DHT22;1760;52.480;13.422;2022-12-17T08:31:33;-0.50;99.90
3492;DHT22;1760;52.480;13.422;2022-12-17T08:34:29;-0.50;99.90
3492;DHT22;1760;52.480;13.422;2022-12-17T08:37:13;-0.50;99.90
3492;DHT22;1760;52.480;13.422;2022-12-17T08:39:59;-0.50;99.90
3492;DHT22;1760;52.480;13.422;2022-12-17T08:42:43;-0.40;99.90
3492;DHT22;1760;52.480;13.422;2022-12-17T08:45:27;-0.40;99.90
3492;DHT22;1760;52.480;13.422;2022-12-17T08:48:12;-0.30;99.90
3492;DHT22;1760;52.480;13.422;2022-12-17T08:50:56;-0.30;99.90
3492;DHT22;1760;52.480;13.422;2022-12-17T08:53:41;-0.20;99.90
3492;DHT22;1760;52.480;13.422;2022-12-17T08:56:26;-0.20;99.90
3492;DHT22;1760;52.480;13.422;2022-12-17T08:59:11;-0.20;99.90
3492;DHT22;1760;52.480;13.422;2022-12-17T09:01:55;-0.20;99.90
3492;DHT22;1760;52.480;13.422;2022-12-17T09:04:40;-0.30;99.90
3492;DHT22;1760;52.480;13.422;2022-12-17T09:07:24;-0.20;99.90
3492;DHT22;1760;52.480;13.422;2022-12-17T09:10:08;-0.20;99.90
3492;DHT22;1760;52.480;13.422;2022-12-17T09:12:54;-0.10;99.90
3492;DHT22;1760;52.480;13.422;2022-12-17T09:15:38;-0.20;99.90
3492;DHT22;1760;52.480;13.422;2022-12-17T09:18:22;-0.10;99.90
3492;DHT22;1760;52.480;13.422;2022-12-17T09:21:07;-0.20;99.90
3492;DHT22;1760;52.480;13.422;2022-12-17T09:23:55;-0.20;99.90
3492;DHT22;1760;52.480;13.422;2022-12-17T09:26:39;-0.10;99.90
3492;DHT22;1760;52.480;13.422;2022-12-17T09:29:25;-0.20;99.90
3492;DHT22;1760;52.480;13.422;2022-12-17T09:32:09;-0.20;99.90
3492;DHT22;1760;52.480;13.422;2022-12-17T09:34:53;-0.20;99.90
3492;DHT22;1760;52.480;13.422;2022-12-17T09:37:39;-0.20;99.90
3492;DHT22;1760;52.480;13.422;2022-12-17T09:40:24;-0.10;99.90
3492;DHT22;1760;52.480;13.422;2022-12-17T09:43:20;-0.10;99.90
3492;DHT22;1760;52.480;13.422;2022-12-17T09:46:17;-0.10;99.90
3492;DHT22;1760;52.480;13.422;2022-12-17T09:49:10;0.00;99.90
3492;DHT22;1760;52.480;13.422;2022-12-17T09:51:56;0.00;99.90
3492;DHT22;1760;52.480;13.422;2022-12-17T09:54:43;0.00;99.90
3492;DHT22;1760;52.480;13.422;2022-12-17T09:57:33;-0.10;99.90
3492;DHT22;1760;52.480;13.422;2022-12-17T10:00:26;-0.10;99.90
3492;DHT22;1760;52.480;13.422;2022-12-17T10:03:15;-0.10;99.90
3492;DHT22;1760;52.480;13.422;2022-12-17T10:06:07;0.00;99.90
3492;DHT22;1760;52.480;13.422;2022-12-17T10:08:57;0.00;99.90
3492;DHT22;1760;52.480;13.422;2022-12-17T10:11:42;-0.10;99.90
3492;DHT22;1760;52.480;13.422;2022-12-17T10:14:27;-0.20;99.90
3492;DHT22;1760;52.480;13.422;2022-12-17T10:17:15;-0.10;99.90
3492;DHT22;1760;52.480;13.422;2022-12-17T10:20:02;-0.10;99.90
3492;DHT22;1760;52.480;13.422;2022-12-17T10:22:48;-0.20;99.90
3492;DHT22;1760;52.480;13.422;2022-12-17T10:25:34;-0.20;99.90
3492;DHT22;1760;52.480;13.422;2022-12-17T10:28:21;-0.20;99.90
3492;DHT22;1760;52.480;13.422;2022-12-17T10:31:09;-0.10;99.90
3492;DHT22;1760;52.480;13.422;2022-12-17T10:33:55;0.00;99.90
3492;DHT22;1760;52.480;13.422;2022-12-17T10:36:45;0.00;99.90
3492;DHT22;1760;52.480;13.422;2022-12-17T10:39:32;0.00;99.90
3492;DHT22;1760;52.480;13.422;2022-12-17T10:42:21;0.00;99.90
3492;DHT22;1760;52.480;13.422;2022-12-17T11:00:40;0.00;99.90
3492;DHT22;1760;52.480;13.422;2022-12-17T11:03:28;0.00;99.90
3492;DHT22;1760;52.480;13.422;2022-12-17T11:06:16;0.00;99.90
3492;DHT22;1760;52.480;13.422;2022-12-17T11:09:05;-0.10;99.90
3492;DHT22;1760;52.480;13.422;2022-12-17T11:11:56;0.00;99.90
3492;DHT22;1760;52.480;13.422;2022-12-17T11:14:47;0.10;99.90
3492;DHT22;1760;52.480;13.422;2022-12-17T11:17:35;0.00;99.90
3492;DHT22;1760;52.480;13.422;2022-12-17T11:20:26;-0.10;99.90
3492;DHT22;1760;52.480;13.422;2022-12-17T11:23:16;0.00;99.90
3492;DHT22;1760;52.480;13.422;2022-12-17T11:26:04;0.00;99.90
3492;DHT22;1760;52.480;13.422;2022-12-17T11:28:49;-0.10;99.90
3492;DHT22;1760;52.480;13.422;2022-12-17T11:31:49;-0.10;99.90
3492;DHT22;1760;52.480;13.422;2022-12-17T11:35:05;-0.20;99.90
3492;DHT22;1760;52.480;13.422;2022-12-17T11:37:59;-0.10;99.90
3492;DHT22;1760;52.480;13.422;2022-12-17T11:40:50;-0.40;99.90
3492;DHT22;1760;52.480;13.422;2022-12-17T11:43:41;-0.50;99.90
3492;DHT22;1760;52.480;13.422;2022-12-17T11:46:37;-0.60;99.90
3492;DHT22;1760;52.480;13.422;2022-12-17T11:49:31;-0.60;99.90
3492;DHT22;1760;52.480;13.422;2022-12-17T11:52:31;-0.60;99.90
3492;DHT22;1760;52.480;13.422;2022-12-17T11:55:27;-0.60;99.90
3492;DHT22;1760;52.480;13.422;2022-12-17T11:58:21;-0.50;99.90
3492;DHT22;1760;52.480;13.422;2022-12-17T12:01:13;-0.40;99.90
3492;DHT22;1760;52.480;13.422;2022-12-17T12:04:13;-0.30;99.90
3492;DHT22;1760;52.480;13.422;2022-12-17T12:07:06;-0.20;99.90
3492;DHT22;1760;52.480;13.422;2022-12-17T12:10:01;-0.20;99.90
3492;DHT22;1760;52.480;13.422;2022-12-17T12:12:54;-0.20;99.90
3492;DHT22;1760;52.480;13.422;2022-12-17T12:15:50;-0.10;99.90
3492;DHT22;1760;52.480;13.422;2022-12-17T12:18:49;-0.10;99.90
3492;DHT22;1760;52.480;13.422;2022-12-17T12:21:44;-0.30;99.90
3492;DHT22;1760;52.480;13.422;2022-12-17T12:24:45;-0.30;99.90
3492;DHT22;1760;52.480;13.422;2022-12-17T12:27:39;-0.30;99.90
3492;DHT22;1760;52.480;13.422;2022-12-17T12:30:33;-0.30;99.90
3492;DHT22;1760;52.480;13.422;2022-12-17T12:33:28;-0.50;99.90
3492;DHT22;1760;52.480;13.422;2022-12-17T12:36:16;-0.50;99.90
3492;DHT22;1760;52.480;13.422;2022-12-17T12:39:01;-0.50;99.90
3492;DHT22;1760;52.480;13.422;2022-12-17T12:41:50;-0.50;99.90
3492;DHT22;1760;52.480;13.422;2022-12-17T12:44:43;-0.60;99.90
3492;DHT22;1760;52.480;13.422;2022-12-17T12:47:42;-0.60;99.90
3492;DHT22;1760;52.480;13.422;2022-12-17T12:50:38;-0.50;99.90
3492;DHT22;1760;52.480;13.422;2022-12-17T12:53:24;-0.60;99.90
3492;DHT22;1760;52.480;13.422;2022-12-17T12:56:27;-0.50;99.90
3492;DHT22;1760;52.480;13.422;2022-12-17T12:59:23;-0.50;99.90
3492;DHT22;1760;52.480;13.422;2022-12-17T13:02:23;-0.60;99.90
3492;DHT22;1760;52.480;13.422;2022-12-17T13:05:26;-0.60;99.90
3492;DHT22;1760;52.480;13.422;2022-12-17T13:08:03;-0.50;99.90
3492;DHT22;1760;52.480;13.422;2022-12-17T13:10:42;-0.60;99.90
3492;DHT22;1760;52.480;13.422;2022-12-17T13:13:12;-0.50;99.90
3492;DHT22;1760;52.480;13.422;2022-12-17T13:15:45;-0.50;99.90
3492;DHT22;1760;52.480;13.422;2022-12-17T13:18:21;-0.50;99.90
3492;DHT22;1760;52.480;13.422;2022-12-17T13:21:00;-0.50;99.90
3492;DHT22;1760;52.480;13.422;2022-12-17T13:23:35;-0.50;99.90
3492;DHT22;1760;52.480;13.422;2022-12-17T13:26:30;-0.70;99.90
3492;DHT22;1760;52.480;13.422;2022-12-17T13:29:18;-0.70;99.90
3492;DHT22;1760;52.480;13.422;2022-12-17T13:34:56;-0.80;99.90
3492;DHT22;1760;52.480;13.422;2022-12-17T13:37:31;-0.80;99.90
3492;DHT22;1760;52.480;13.422;2022-12-17T13:40:12;-0.80;99.90
3492;DHT22;1760;52.480;13.422;2022-12-17T13:42:47;-0.80;99.90
3492;DHT22;1760;52.480;13.422;2022-12-17T13:45:16;-0.80;99.90
3492;DHT22;1760;52.480;13.422;2022-12-17T13:47:51;-0.80;99.90
3492;DHT22;1760;52.480;13.422;2022-12-17T13:50:22;-0.70;99.90
3492;DHT22;1760;52.480;13.422;2022-12-17T13:52:50;-0.70;99.90
3492;DHT22;1760;52.480;13.422;2022-12-17T13:55:19;-0.70;99.90
3492;DHT22;1760;52.480;13.422;2022-12-17T13:57:49;-0.70;99.90
3492;DHT22;1760;52.480;13.422;2022-12-17T14:00:22;-0.60;99.90
3492;DHT22;1760;52.480;13.422;2022-12-17T14:02:50;-0.60;99.90
3492;DHT22;1760;52.480;13.422;2022-12-17T14:05:25;-0.60;99.90
3492;DHT22;1760;52.480;13.422;2022-12-17T14:07:53;-0.70;99.90
3492;DHT22;1760;52.480;13.422;2022-12-17T14:10:21;-0.60;99.90
3492;DHT22;1760;52.480;13.422;2022-12-17T14:12:48;-0.60;99.90
3492;DHT22;1760;52.480;13.422;2022-12-17T14:15:22;-0.60;99.90
3492;DHT22;1760;52.480;13.422;2022-12-17T14:17:50;-0.60;99.90
3492;DHT22;1760;52.480;13.422;2022-12-17T14:20:22;-0.70;99.90
3492;DHT22;1760;52.480;13.422;2022-12-17T14:22:52;-0.70;99.90
3492;DHT22;1760;52.480;13.422;2022-12-17T14:25:21;-0.70;99.90
3492;DHT22;1760;52.480;13.422;2022-12-17T14:30:32;-0.70;99.90
3492;DHT22;1760;52.480;13.422;2022-12-17T14:33:01;-0.60;99.90
3492;DHT22;1760;52.480;13.422;2022-12-17T14:35:34;-0.70;99.90
3492;DHT22;1760;52.480;13.422;2022-12-17T14:38:02;-0.70;99.90
3492;DHT22;1760;52.480;13.422;2022-12-17T14:40:29;-0.80;99.90
3492;DHT22;1760;52.480;13.422;2022-12-17T14:42:58;-0.70;99.90
3492;DHT22;1760;52.480;13.422;2022-12-17T14:45:27;-0.80;99.90
3492;DHT22;1760;52.480;13.422;2022-12-17T14:47:56;-0.70;99.90
3492;DHT22;1760;52.480;13.422;2022-12-17T14:50:26;-0.80;99.90
3492;DHT22;1760;52.480;13.422;2022-12-17T14:52:59;-0.60;99.90
3492;DHT22;1760;52.480;13.422;2022-12-17T14:55:32;-0.80;99.90
3492;DHT22;1760;52.480;13.422;2022-12-17T14:58:13;-0.80;99.90
3492;DHT22;1760;52.480;13.422;2022-12-17T15:00:43;-0.80;99.90
3492;DHT22;1760;52.480;13.422;2022-12-17T15:03:17;-0.80;99.90
3492;DHT22;1760;52.480;13.422;2022-12-17T15:05:46;-0.90;99.90
3492;DHT22;1760;52.480;13.422;2022-12-17T15:08:15;-1.00;99.90
3492;DHT22;1760;52.480;13.422;2022-12-17T15:10:42;-1.00;99.90
3492;DHT22;1760;52.480;13.422;2022-12-17T15:13:09;-1.00;99.90
3492;DHT22;1760;52.480;13.422;2022-12-17T15:15:36;-1.10;99.90
3492;DHT22;1760;52.480;13.422;2022-12-17T15:20:50;-1.10;99.90
3492;DHT22;1760;52.480;13.422;2022-12-17T15:23:21;-1.10;99.90
3492;DHT22;1760;52.480;13.422;2022-12-17T15:25:54;-1.10;99.90
3492;DHT22;1760;52.480;13.422;2022-12-17T15:28:22;-1.10;99.90
3492;DHT22;1760;52.480;13.422;2022-12-17T15:30:49;-1.10;99.90
3492;DHT22;1760;52.480;13.422;2022-12-17T15:33:18;-1.20;99.90
3492;DHT22;1760;52.480;13.422;2022-12-17T15:35:45;-1.20;99.90
3492;DHT22;1760;52.480;13.422;2022-12-17T15:38:14;-1.20;99.90
3492;DHT22;1760;52.480;13.422;2022-12-17T15:40:42;-1.30;99.90
3492;DHT22;1760;52.480;13.422;2022-12-17T15:43:12;-1.30;99.90
3492;DHT22;1760;52.480;13.422;2022-12-17T15:45:39;-1.30;99.90
3492;DHT22;1760;52.480;13.422;2022-12-17T15:48:07;-1.30;99.90
3492;DHT22;1760;52.480;13.422;2022-12-17T15:50:34;-1.30;99.90
3492;DHT22;1760;52.480;13.422;2022-12-17T15:53:02;-1.30;99.90
3492;DHT22;1760;52.480;13.422;2022-12-17T15:55:29;-1.40;99.90
3492;DHT22;1760;52.480;13.422;2022-12-17T15:57:57;-1.30;99.90
3492;DHT22;1760;52.480;13.422;2022-12-17T16:00:27;-1.30;99.90
3492;DHT22;1760;52.480;13.422;2022-12-17T16:02:54;-1.30;99.90
3492;DHT22;1760;52.480;13.422;2022-12-17T16:05:21;-1.20;99.90
3492;DHT22;1760;52.480;13.422;2022-12-17T16:07:48;-1.20;99.90
3492;DHT22;1760;52.480;13.422;2022-12-17T16:10:15;-1.20;99.90
3492;DHT22;1760;52.480;13.422;2022-12-17T16:12:42;-1.20;99.90
3492;DHT22;1760;52.480;13.422;2022-12-17T16:15:11;-1.20;99.90
3492;DHT22;1760;52.480;13.422;2022-12-17T16:17:38;-1.20;99.90
3492;DHT22;1760;52.480;13.422;2022-12-17T16:20:06;-1.30;99.90
3492;DHT22;1760;52.480;13.422;2022-12-17T16:22:33;-1.30;99.90
3492;DHT22;1760;52.480;13.422;2022-12-17T16:25:04;-1.30;99.90
3492;DHT22;1760;52.480;13.422;2022-12-17T16:27:31;-1.30;99.90
3492;DHT22;1760;52.480;13.422;2022-12-17T16:29:58;-1.40;99.90
3492;DHT22;1760;52.480;13.422;2022-12-17T16:32:26;-1.40;99.90
3492;DHT22;1760;52.480;13.422;2022-12-17T16:34:58;-1.30;99.90
3492;DHT22;1760;52.480;13.422;2022-12-17T16:37:24;-1.30;99.90
3492;DHT22;1760;52.480;13.422;2022-12-17T16:39:51;-1.20;99.90
3492;DHT22;1760;52.480;13.422;2022-12-17T16:42:18;-1.20;99.90
3492;DHT22;1760;52.480;13.422;2022-12-17T16:44:45;-1.20;99.90
3492;DHT22;1760;52.480;13.422;2022-12-17T16:47:12;-1.20;99.90
3492;DHT22;1760;52.480;13.422;2022-12-17T16:49:40;-1.20;99.90
3492;DHT22;1760;52.480;13.422;2022-12-17T16:52:09;-1.20;99.90
3492;DHT22;1760;52.480;13.422;2022-12-17T16:54:36;-1.20;99.90
3492;DHT22;1760;52.480;13.422;2022-12-17T16:57:03;-1.20;99.90
3492;DHT22;1760;52.480;13.422;2022-12-17T16:59:30;-1.20;99.90
3492;DHT22;1760;52.480;13.422;2022-12-17T17:01:57;-1.30;99.90
3492;DHT22;1760;52.480;13.422;2022-12-17T17:04:24;-1.30;99.90
3492;DHT22;1760;52.480;13.422;2022-12-17T17:06:55;-1.30;99.90
3492;DHT22;1760;52.480;13.422;2022-12-17T17:09:23;-1.30;99.90
3492;DHT22;1760;52.480;13.422;2022-12-17T17:11:54;-1.40;99.90
3492;DHT22;1760;52.480;13.422;2022-12-17T17:14:21;-1.40;99.90
3492;DHT22;1760;52.480;13.422;2022-12-17T17:16:48;-1.30;99.90
3492;DHT22;1760;52.480;13.422;2022-12-17T17:19:15;-1.40;99.90
3492;DHT22;1760;52.480;13.422;2022-12-17T17:21:50;-1.50;99.90
3492;DHT22;1760;52.480;13.422;2022-12-17T17:24:21;-1.50;99.90
3492;DHT22;1760;52.480;13.422;2022-12-17T17:26:50;-1.40;99.90
3492;DHT22;1760;52.480;13.422;2022-12-17T17:29:18;-1.50;99.90
3492;DHT22;1760;52.480;13.422;2022-12-17T17:31:48;-1.50;99.90
3492;DHT22;1760;52.480;13.422;2022-12-17T17:34:15;-1.50;99.90
3492;DHT22;1760;52.480;13.422;2022-12-17T17:36:42;-1.60;99.90
3492;DHT22;1760;52.480;13.422;2022-12-17T17:39:09;-1.70;99.90
3492;DHT22;1760;52.480;13.422;2022-12-17T17:41:38;-1.60;99.90
3492;DHT22;1760;52.480;13.422;2022-12-17T17:44:06;-1.60;99.90
3492;DHT22;1760;52.480;13.422;2022-12-17T17:46:34;-1.60;99.90
3492;DHT22;1760;52.480;13.422;2022-12-17T17:49:03;-1.60;99.90
3492;DHT22;1760;52.480;13.422;2022-12-17T17:51:32;-1.60;99.90
3492;DHT22;1760;52.480;13.422;2022-12-17T17:54:01;-1.70;99.90
3492;DHT22;1760;52.480;13.422;2022-12-17T17:56:29;-1.70;99.90
3492;DHT22;1760;52.480;13.422;2022-12-17T17:59:03;-1.80;99.90
3492;DHT22;1760;52.480;13.422;2022-12-17T18:01:34;-1.80;99.90